Tuesday, January 16, 2018, 6:54 AM EST
Back to Local

KLNS, Lancaster Airport

Location: Lititz, PA, United States Lat: 40.117
Local Time: 6:54 AM EST (11:54 GMT) Lon: -76.3
Time Zone: US/Eastern Elev: 403 ft

Show me the last for .
Show Decoded

2018-01-16 06:11 METAR KLNS 161111Z 00000KT 1SM -SN BR VV015 M03/M03 A3046 RMK AO2 P0001
                 T10281028 =
2018-01-16 05:53 METAR KLNS 161053Z 00000KT 1 1/4SM -SN BR OVC013 M03/M03 A3045 RMK AO2 SLP317
                 P0000 T10281033 =
2018-01-16 05:22 METAR KLNS 161022Z AUTO 00000KT 1 1/2SM -SN BR OVC011 M03/M03 A3045 RMK AO2
                 P0000 T10281033 =
2018-01-16 04:53 METAR KLNS 160953Z AUTO 00000KT 2 1/2SM -SN BR OVC011 M03/M03 A3044 RMK AO2
                 SNE01B46 SLP314 P0000 T10281028 =
2018-01-16 03:53 METAR KLNS 160853Z AUTO 00000KT 3SM -SN BR OVC013 M03/M04 A3044 RMK AO2
                 SNB0757E27B49 SLP315 P0000 60000 T10281039 50004 =
2018-01-16 03:37 METAR KLNS 160837Z AUTO 00000KT 4SM BR BKN013 OVC018 M03/M03 A3045 RMK AO2
                 SNB0757E27 P0000 T10281033 =
2018-01-16 03:25 METAR KLNS 160825Z AUTO 00000KT 2 1/2SM -SN BR OVC017 M03/M04 A3044 RMK AO2
                 SNB0757 P0000 T10331039 =
2018-01-16 03:15 METAR KLNS 160815Z AUTO 00000KT 1 3/4SM -SN BR OVC017 M03/M04 A3043 RMK AO2
                 SNB0757 PRESFR P0000 T10281039 =
2018-01-16 03:04 METAR KLNS 160804Z AUTO 00000KT 2 1/2SM -SN BR FEW009 OVC017 M03/M04 A3045 RMK
                 AO2 SNB0757 P0000 T10281044 =
2018-01-16 02:53 METAR KLNS 160753Z AUTO 00000KT 5SM BR OVC010 M03/M05 A3045 RMK AO2 SLP318
                 T10281050 =
2018-01-16 01:53 METAR KLNS 160653Z AUTO 00000KT 10SM OVC011 M03/M06 A3045 RMK AO2 SLP317
                 T10281061 =
2018-01-16 00:53 METAR KLNS 160553Z AUTO 00000KT 10SM OVC012 M03/M07 A3043 RMK AO2 SLP312
                 T10281067 11022 21028 58010 =
2018-01-15 23:53 METAR KLNS 160453Z AUTO 00000KT 10SM OVC014 M03/M07 A3046 RMK AO2 SLP320
                 T10281067 410281117 =
2018-01-15 23:33 METAR KLNS 160433Z AUTO 27005KT 10SM OVC014 M03/M07 A3047 RMK AO2 T10281067 =
2018-01-15 22:53 METAR KLNS 160353Z 00000KT 10SM OVC016 M03/M07 A3046 RMK AO2 SLP322 T10281067 =
2018-01-15 21:53 METAR KLNS 160253Z 00000KT 10SM OVC017 M03/M07 A3046 RMK AO2 SLP322 T10281072
                 56008 =
2018-01-15 20:53 METAR KLNS 160153Z 05003KT 10SM OVC018 M03/M07 A3047 RMK AO2 SLP325 T10281072 =
2018-01-15 19:53 METAR KLNS 160053Z 05003KT 10SM OVC020 M03/M07 A3047 RMK AO2 SLP325 T10281072 =
2018-01-15 18:53 METAR KLNS 152353Z 00000KT 10SM OVC024 M03/M08 A3049 RMK AO2 SLP331 T10281083
                 11028 21050 53003 =
2018-01-15 17:53 METAR KLNS 152253Z 00000KT 10SM OVC028 M03/M08 A3049 RMK AO2 SLP330 T10281083 =
2018-01-15 16:53 METAR KLNS 152153Z 10003KT 10SM BKN026 OVC030 M03/M08 A3048 RMK AO2 SLP327
                 T10281083 =
2018-01-15 16:19 METAR KLNS 152119Z 09004KT 10SM OVC027 M03/M08 A3048 RMK AO2 T10281078 =
2018-01-15 16:04 METAR KLNS 152104Z 06007KT 10SM BKN027 OVC046 M03/M08 A3047 RMK AO2 T10281083 =
2018-01-15 15:53 METAR KLNS 152053Z 09005KT 10SM SCT027 BKN046 M03/M08 A3048 RMK AO2 SLP327
                 T10331083 55006 =
2018-01-15 15:48 METAR KLNS 152048Z 08007KT 10SM FEW029 BKN046 M03/M08 A3047 RMK AO2 =
2018-01-15 14:53 METAR KLNS 151953Z 11004KT 10SM BKN021 BKN030 OVC043 M03/M09 A3049 RMK AO2
                 SLP329 T10331089 =
2018-01-15 13:53 METAR KLNS 151853Z 10006KT 10SM OVC020 M03/M09 A3050 RMK AO2 SLP334 T10331089 =
2018-01-15 12:53 METAR KLNS 151753Z 07005KT 10SM BKN019 OVC027 M05/M10 A3053 RMK AO2 SLP346
                 T10501100 11050 21111 58030 =
2018-01-15 11:53 METAR KLNS 151653Z 08007KT 10SM OVC018 M06/M11 A3057 RMK AO2 SLP359 T10611106 =
2018-01-15 10:53 METAR KLNS 151553Z 07008KT 10SM SCT019 BKN025 OVC035 M06/M11 A3059 RMK AO2
                 SLP366 T10611111 =
2018-01-15 09:53 METAR KLNS 151453Z 05007KT 10SM OVC026 M07/M12 A3062 RMK AO2 SLP376 T10721117
                 53006 =
2018-01-15 08:53 METAR KLNS 151353Z 07006KT 10SM OVC026 M08/M13 A3062 RMK AO2 SLP375 T10831133 =
2018-01-15 07:53 METAR KLNS 151253Z 06007KT 10SM OVC025 M09/M14 A3060 RMK AO2 SLP369 T10941139 =
2018-01-15 07:15 METAR KLNS 151215Z 06005KT 10SM BKN025 M10/M14 A3060 RMK AO2 T11001144 =
2018-01-15 07:03 METAR KLNS 151203Z 06006KT 10SM SCT025 M11/M14 A3060 RMK AO2 T11111144 =

Support USWX by starting your Amazon purchase here.